createdAt,value
2017-09-29T00:01:54.711Z,99.90
2017-09-29T00:04:23.301Z,99.90
2017-09-29T00:06:52.524Z,99.90
2017-09-29T00:09:20.901Z,99.90
2017-09-29T00:11:49.328Z,99.90
2017-09-29T00:14:17.667Z,99.90
2017-09-29T00:16:46.723Z,99.90
2017-09-29T00:19:15.015Z,99.90
2017-09-29T00:21:43.331Z,99.90
2017-09-29T00:24:11.624Z,99.90
2017-09-29T00:26:40.068Z,99.90
2017-09-29T00:29:08.419Z,99.90
2017-09-29T00:31:37.080Z,99.90
2017-09-29T00:34:05.579Z,99.90
2017-09-29T00:36:34.743Z,99.90
2017-09-29T00:39:03.100Z,99.90
2017-09-29T00:41:32.947Z,99.90
2017-09-29T00:44:01.269Z,99.90
2017-09-29T00:46:29.564Z,99.90
2017-09-29T00:48:59.397Z,99.90
2017-09-29T00:51:27.715Z,99.90
2017-09-29T00:53:56.807Z,99.90
2017-09-29T00:56:25.184Z,99.90
2017-09-29T00:58:53.615Z,99.90
2017-09-29T01:01:22.024Z,99.90
2017-09-29T01:03:50.408Z,99.90
2017-09-29T01:06:18.728Z,99.90
2017-09-29T01:08:47.060Z,99.90
2017-09-29T01:11:16.128Z,99.90
2017-09-29T01:13:44.456Z,99.90
2017-09-29T01:16:12.783Z,99.90
2017-09-29T01:18:41.220Z,99.90
2017-09-29T01:21:09.567Z,99.90
2017-09-29T01:23:38.068Z,99.90
2017-09-29T01:26:06.472Z,99.90
2017-09-29T01:28:35.687Z,99.90
2017-09-29T01:31:04.496Z,99.90
2017-09-29T01:33:32.907Z,99.90
2017-09-29T01:36:01.208Z,99.90
2017-09-29T01:38:29.618Z,99.90
2017-09-29T01:40:57.935Z,99.90
2017-09-29T01:43:27.770Z,99.90
2017-09-29T01:45:56.156Z,99.90
2017-09-29T01:48:24.596Z,99.90
2017-09-29T01:50:52.987Z,99.90
2017-09-29T01:53:22.187Z,99.90
2017-09-29T01:55:51.288Z,99.90
2017-09-29T01:58:19.616Z,99.90
2017-09-29T02:00:47.908Z,99.90
2017-09-29T02:03:16.316Z,99.90
2017-09-29T02:05:44.604Z,99.90
2017-09-29T02:08:12.927Z,99.90
2017-09-29T02:10:41.247Z,99.90
2017-09-29T02:13:09.718Z,99.90
2017-09-29T02:15:38.105Z,99.90
2017-09-29T02:18:07.245Z,99.90
2017-09-29T02:20:35.712Z,99.90
2017-09-29T02:23:04.508Z,99.90
2017-09-29T02:25:34.014Z,99.90
2017-09-29T02:28:02.456Z,99.90
2017-09-29T02:30:30.812Z,99.90
2017-09-29T02:32:59.140Z,99.90
2017-09-29T02:35:27.464Z,99.90
2017-09-29T02:37:55.979Z,99.90
2017-09-29T02:40:24.372Z,99.90
2017-09-29T02:42:53.528Z,99.90
2017-09-29T02:45:21.865Z,99.90
2017-09-29T02:47:50.157Z,99.90
2017-09-29T02:50:18.561Z,99.90
2017-09-29T02:52:46.875Z,99.90
2017-09-29T02:55:15.205Z,99.90
2017-09-29T02:57:45.846Z,99.90
2017-09-29T03:00:16.128Z,99.90
2017-09-29T03:02:54.510Z,99.90
2017-09-29T03:05:25.724Z,99.90
2017-09-29T03:07:54.372Z,99.90
2017-09-29T03:10:22.845Z,99.90
2017-09-29T03:12:51.239Z,99.90
2017-09-29T03:15:20.300Z,99.90
2017-09-29T03:17:48.719Z,99.90
2017-09-29T03:20:17.024Z,99.90
2017-09-29T03:22:45.527Z,99.90
2017-09-29T03:25:13.823Z,99.90
2017-09-29T03:27:42.123Z,99.90
2017-09-29T03:30:10.480Z,99.90
2017-09-29T03:32:39.735Z,99.90
2017-09-29T03:35:08.143Z,99.90
2017-09-29T03:37:36.564Z,99.90
2017-09-29T03:40:05.749Z,99.90
2017-09-29T03:42:34.332Z,99.90
2017-09-29T03:45:02.704Z,99.90
2017-09-29T03:47:31.100Z,99.90
2017-09-29T03:50:02.508Z,99.90
2017-09-29T03:52:32.419Z,99.90
2017-09-29T03:55:02.774Z,99.90
2017-09-29T03:57:33.022Z,99.90
2017-09-29T04:00:01.463Z,99.90
2017-09-29T04:02:30.547Z,99.90
2017-09-29T04:04:58.842Z,99.90
2017-09-29T04:07:27.243Z,99.90
2017-09-29T04:09:55.552Z,99.90
2017-09-29T04:12:24.042Z,99.90
2017-09-29T04:14:52.373Z,99.90
2017-09-29T04:17:22.180Z,99.90
2017-09-29T04:19:50.507Z,99.90
2017-09-29T04:22:18.839Z,99.90
2017-09-29T04:24:47.932Z,99.90
2017-09-29T04:27:16.263Z,99.90
2017-09-29T04:29:45.364Z,99.90
2017-09-29T04:32:13.657Z,99.90
2017-09-29T04:34:42.047Z,99.90
2017-09-29T04:37:10.455Z,99.90
2017-09-29T04:39:38.766Z,99.90
2017-09-29T04:42:07.108Z,99.90
2017-09-29T04:44:35.447Z,99.90
2017-09-29T04:47:03.837Z,99.90
2017-09-29T04:49:32.159Z,99.90
2017-09-29T04:52:00.484Z,99.90
2017-09-29T04:54:28.872Z,99.90
2017-09-29T04:56:57.171Z,99.90
2017-09-29T04:59:25.491Z,99.90
2017-09-29T05:01:53.813Z,99.90
2017-09-29T05:04:22.876Z,99.90
2017-09-29T05:06:51.316Z,99.90
2017-09-29T05:09:19.610Z,99.90
2017-09-29T05:11:47.950Z,99.90
2017-09-29T05:14:17.028Z,99.90
2017-09-29T05:16:45.328Z,99.90
2017-09-29T05:19:13.683Z,99.90
2017-09-29T05:21:41.979Z,99.90
2017-09-29T05:24:10.272Z,99.90
2017-09-29T05:26:39.365Z,99.90
2017-09-29T05:29:07.697Z,99.90
2017-09-29T05:31:36.791Z,99.90
2017-09-29T05:34:05.164Z,99.90
2017-09-29T05:36:33.573Z,99.90
2017-09-29T05:39:01.883Z,99.90
2017-09-29T05:41:30.184Z,99.90
2017-09-29T05:43:58.516Z,99.90
2017-09-29T05:46:27.575Z,99.90
2017-09-29T05:48:55.923Z,99.90
2017-09-29T05:51:24.212Z,99.90
2017-09-29T05:53:52.552Z,99.90
2017-09-29T05:56:21.671Z,99.90
2017-09-29T05:58:49.981Z,99.90
2017-09-29T06:01:18.285Z,99.90
2017-09-29T06:03:47.393Z,99.90
2017-09-29T06:06:16.451Z,99.90
2017-09-29T06:08:44.780Z,99.90
2017-09-29T06:11:13.104Z,99.90
2017-09-29T06:13:42.312Z,99.90
2017-09-29T06:16:10.607Z,99.90
2017-09-29T06:18:38.943Z,99.90
2017-09-29T06:21:08.011Z,99.90
2017-09-29T06:23:36.331Z,99.90
2017-09-29T06:26:05.516Z,99.90
2017-09-29T06:28:33.888Z,99.90
2017-09-29T06:31:03.100Z,99.90
2017-09-29T06:33:31.391Z,99.90
2017-09-29T06:35:59.732Z,99.90
2017-09-29T06:38:28.092Z,99.90
2017-09-29T06:40:56.424Z,99.90
2017-09-29T06:43:24.795Z,99.90
2017-09-29T06:45:53.136Z,99.90
2017-09-29T06:48:21.505Z,99.90
2017-09-29T06:50:49.808Z,99.90
2017-09-29T06:53:18.208Z,99.90
2017-09-29T06:55:46.512Z,99.90
2017-09-29T06:58:14.841Z,99.90
2017-09-29T07:00:44.036Z,99.90
2017-09-29T07:03:12.335Z,99.90
2017-09-29T07:05:40.660Z,99.90
2017-09-29T07:08:09.747Z,99.90
2017-09-29T07:10:38.080Z,99.90
2017-09-29T07:13:07.188Z,99.90
2017-09-29T07:15:36.992Z,99.90
2017-09-29T07:18:05.440Z,99.90
2017-09-29T07:20:33.767Z,99.90
2017-09-29T07:23:02.124Z,99.90
2017-09-29T07:25:31.283Z,99.90
2017-09-29T07:28:00.944Z,99.90
2017-09-29T07:30:30.231Z,99.90
2017-09-29T07:32:58.812Z,99.90
2017-09-29T07:35:27.216Z,99.90
2017-09-29T07:37:55.544Z,99.90
2017-09-29T07:40:23.836Z,99.90
2017-09-29T07:42:52.335Z,99.90
2017-09-29T07:45:20.733Z,99.90
2017-09-29T07:47:49.023Z,99.90
2017-09-29T07:50:17.352Z,99.90
2017-09-29T07:52:45.648Z,99.90
2017-09-29T07:55:14.043Z,99.90
2017-09-29T07:57:42.443Z,99.90
2017-09-29T08:00:10.751Z,99.90
2017-09-29T08:02:39.076Z,99.90
2017-09-29T08:05:07.367Z,99.90
2017-09-29T08:07:37.208Z,99.90
2017-09-29T08:10:05.504Z,99.90
2017-09-29T08:12:35.331Z,99.90
2017-09-29T08:15:05.272Z,99.90
2017-09-29T08:17:33.610Z,99.90
2017-09-29T08:20:02.688Z,99.90
2017-09-29T08:22:31.015Z,99.90
2017-09-29T08:24:59.335Z,99.90
2017-09-29T08:27:28.396Z,99.90
2017-09-29T08:29:56.727Z,99.90
2017-09-29T08:32:25.048Z,99.90
2017-09-29T08:34:54.131Z,99.90
2017-09-29T08:37:22.431Z,99.90
2017-09-29T08:39:50.839Z,99.90
2017-09-29T08:42:19.173Z,99.90
2017-09-29T08:44:48.257Z,99.90
2017-09-29T08:47:16.771Z,99.90
2017-09-29T08:49:45.068Z,99.90
2017-09-29T08:52:13.359Z,99.90
2017-09-29T08:54:41.676Z,99.90
2017-09-29T08:57:09.973Z,99.90
2017-09-29T08:59:38.292Z,99.90
2017-09-29T09:02:06.635Z,99.90
2017-09-29T09:04:34.996Z,99.90
2017-09-29T09:07:03.301Z,99.90
2017-09-29T09:09:32.395Z,99.90
2017-09-29T09:12:00.683Z,99.90
2017-09-29T09:14:29.125Z,99.90
2017-09-29T09:16:58.924Z,99.90
2017-09-29T09:19:27.243Z,99.90
2017-09-29T09:21:55.760Z,99.90
2017-09-29T09:24:24.164Z,99.90
2017-09-29T09:26:52.564Z,99.90
2017-09-29T09:29:21.058Z,99.90
2017-09-29T09:31:49.380Z,99.90
2017-09-29T09:34:17.675Z,99.90
2017-09-29T09:36:46.009Z,99.90
2017-09-29T09:39:15.111Z,99.90
2017-09-29T09:41:44.912Z,99.90
2017-09-29T09:44:13.208Z,99.90
2017-09-29T09:46:41.528Z,99.90
2017-09-29T09:49:09.859Z,99.90
2017-09-29T09:51:39.681Z,99.90
2017-09-29T09:54:08.020Z,99.90
2017-09-29T09:56:37.119Z,99.90
2017-09-29T09:59:05.520Z,99.90
2017-09-29T10:01:34.605Z,99.90
2017-09-29T10:04:03.078Z,99.90
2017-09-29T10:06:31.379Z,99.90
2017-09-29T10:08:59.671Z,99.90
2017-09-29T10:11:28.760Z,99.90
2017-09-29T10:13:57.087Z,99.90
2017-09-29T10:16:26.176Z,99.90
2017-09-29T10:18:54.611Z,99.90
2017-09-29T10:21:23.671Z,99.50
2017-09-29T10:23:51.963Z,99.50
2017-09-29T10:26:20.291Z,99.70
2017-09-29T10:28:48.612Z,99.90
2017-09-29T10:31:16.932Z,99.00
2017-09-29T10:33:45.300Z,99.80
2017-09-29T10:36:13.719Z,98.90
2017-09-29T10:38:42.068Z,99.80
2017-09-29T10:41:11.123Z,98.30
2017-09-29T10:43:39.419Z,98.30
2017-09-29T10:46:07.750Z,96.60
2017-09-29T10:48:36.160Z,97.50
2017-09-29T10:51:05.295Z,98.00
2017-09-29T10:53:34.377Z,98.40
2017-09-29T10:56:02.793Z,98.40
2017-09-29T10:58:32.012Z,97.00
2017-09-29T11:01:00.315Z,96.70
2017-09-29T11:03:28.712Z,97.10
2017-09-29T11:05:57.004Z,96.00
2017-09-29T11:08:25.324Z,96.60
2017-09-29T11:10:53.620Z,96.20
2017-09-29T11:13:21.955Z,95.60
2017-09-29T11:15:51.073Z,96.60
2017-09-29T11:18:19.423Z,96.60
2017-09-29T11:20:47.720Z,94.20
2017-09-29T11:23:16.040Z,94.60
2017-09-29T11:25:44.362Z,93.50
2017-09-29T11:28:12.868Z,93.30
2017-09-29T11:30:41.160Z,93.70
2017-09-29T11:33:09.456Z,93.70
2017-09-29T11:35:37.787Z,92.80
2017-09-29T11:38:06.117Z,92.90
2017-09-29T11:40:35.411Z,91.80
2017-09-29T11:43:03.716Z,93.60
2017-09-29T11:45:32.036Z,92.00
2017-09-29T11:48:01.095Z,91.20
2017-09-29T11:50:29.520Z,91.20
2017-09-29T11:52:57.819Z,92.20
2017-09-29T11:55:26.132Z,92.80
2017-09-29T11:57:54.451Z,92.10
2017-09-29T12:00:22.743Z,92.00
2017-09-29T12:02:51.071Z,91.80
2017-09-29T12:05:20.163Z,92.50
2017-09-29T12:07:48.560Z,92.40
2017-09-29T12:10:16.847Z,91.00
2017-09-29T12:12:45.179Z,90.90
2017-09-29T12:15:14.268Z,91.10
2017-09-29T12:17:42.587Z,91.10
2017-09-29T12:20:10.992Z,91.70
2017-09-29T12:22:39.316Z,91.00
2017-09-29T12:25:07.701Z,90.40
2017-09-29T12:27:36.037Z,90.30
2017-09-29T12:30:05.111Z,91.30
2017-09-29T12:32:33.724Z,91.30
2017-09-29T12:35:02.020Z,91.40
2017-09-29T12:37:30.311Z,90.70
2017-09-29T12:39:58.728Z,90.20
2017-09-29T12:42:27.052Z,91.00
2017-09-29T12:44:55.378Z,90.60
2017-09-29T12:47:24.456Z,90.00
2017-09-29T12:49:52.780Z,90.00
2017-09-29T12:52:21.158Z,91.00
2017-09-29T12:54:49.483Z,89.80
2017-09-29T12:57:17.868Z,89.70
2017-09-29T12:59:46.183Z,90.00
2017-09-29T13:02:14.675Z,90.60
2017-09-29T13:04:42.967Z,91.30
2017-09-29T13:07:11.264Z,91.20
2017-09-29T13:09:39.583Z,90.50
2017-09-29T13:12:07.987Z,90.00
2017-09-29T13:14:36.288Z,89.50
2017-09-29T13:17:04.620Z,89.20
2017-09-29T13:19:33.675Z,88.90
2017-09-29T13:22:02.027Z,88.90
2017-09-29T13:24:31.827Z,87.20
2017-09-29T13:27:00.148Z,87.10
2017-09-29T13:29:28.443Z,86.70
2017-09-29T13:31:56.736Z,87.20
2017-09-29T13:34:25.773Z,89.00
2017-09-29T13:36:54.067Z,88.70
2017-09-29T13:39:22.362Z,87.80
2017-09-29T13:41:50.774Z,89.60
2017-09-29T13:44:19.169Z,89.60
2017-09-29T13:46:47.589Z,90.50
2017-09-29T13:49:15.895Z,90.90
2017-09-29T13:51:45.724Z,91.10
2017-09-29T13:54:14.126Z,91.00
2017-09-29T13:56:42.419Z,90.90
2017-09-29T13:59:10.736Z,91.60
2017-09-29T14:01:39.080Z,91.20
2017-09-29T14:04:08.143Z,91.50
2017-09-29T14:06:36.452Z,91.50
2017-09-29T14:09:04.779Z,91.40
2017-09-29T14:11:33.403Z,91.90
2017-09-29T14:14:02.488Z,92.20
2017-09-29T14:16:30.779Z,92.10
2017-09-29T14:18:59.127Z,91.60
2017-09-29T14:21:28.183Z,91.50
2017-09-29T14:23:56.511Z,91.50
2017-09-29T14:26:24.989Z,91.80
2017-09-29T14:28:53.288Z,91.80
2017-09-29T14:31:21.623Z,91.10
2017-09-29T14:33:50.034Z,91.30
2017-09-29T14:36:18.331Z,91.00
2017-09-29T14:38:46.636Z,91.60
2017-09-29T14:41:15.031Z,91.80
2017-09-29T14:43:43.335Z,92.70
2017-09-29T14:46:11.627Z,93.20
2017-09-29T14:48:39.970Z,92.20
2017-09-29T14:51:09.351Z,93.30
2017-09-29T14:53:37.755Z,93.30
2017-09-29T14:56:06.117Z,92.50
2017-09-29T14:58:34.477Z,92.80
2017-09-29T15:01:04.408Z,92.50
2017-09-29T15:03:32.695Z,92.50
2017-09-29T15:06:00.996Z,93.10
2017-09-29T15:08:29.315Z,93.10
2017-09-29T15:10:57.608Z,93.10
2017-09-29T15:13:25.937Z,92.90
2017-09-29T15:15:54.232Z,93.10
2017-09-29T15:18:22.631Z,93.00
2017-09-29T15:20:50.964Z,93.60
2017-09-29T15:23:20.055Z,93.10
2017-09-29T15:25:48.396Z,93.00
2017-09-29T15:28:17.461Z,93.30
2017-09-29T15:30:45.763Z,93.20
2017-09-29T15:33:14.090Z,94.10
2017-09-29T15:35:42.488Z,93.60
2017-09-29T15:38:10.807Z,93.70
2017-09-29T15:40:39.099Z,93.50
2017-09-29T15:43:07.436Z,93.50
2017-09-29T15:45:36.515Z,93.60
2017-09-29T15:48:04.928Z,93.60
2017-09-29T15:50:33.223Z,93.70
2017-09-29T15:53:02.335Z,93.60
2017-09-29T15:55:30.631Z,93.70
2017-09-29T15:57:58.955Z,93.40
2017-09-29T16:00:28.059Z,93.00
2017-09-29T16:02:56.351Z,93.10
2017-09-29T16:05:24.769Z,93.10
2017-09-29T16:07:53.056Z,93.00
2017-09-29T16:10:21.353Z,93.00
2017-09-29T16:12:49.671Z,92.90
2017-09-29T16:15:18.075Z,94.40
2017-09-29T16:17:46.405Z,94.30
2017-09-29T16:20:14.732Z,93.70
2017-09-29T16:22:43.068Z,95.10
2017-09-29T16:25:11.368Z,93.90
2017-09-29T16:27:39.687Z,94.80
2017-09-29T16:30:08.019Z,95.30
2017-09-29T16:32:37.083Z,95.10
2017-09-29T16:35:05.507Z,95.10
2017-09-29T16:37:33.908Z,95.50
2017-09-29T16:40:02.204Z,94.60
2017-09-29T16:42:30.524Z,94.80
2017-09-29T16:44:58.847Z,95.40
2017-09-29T16:47:28.052Z,95.00
2017-09-29T16:49:57.887Z,96.10
2017-09-29T16:52:26.287Z,96.10
2017-09-29T16:54:54.732Z,95.50
2017-09-29T16:57:23.788Z,95.80
2017-09-29T16:59:52.087Z,95.70
2017-09-29T17:02:20.407Z,96.10
2017-09-29T17:04:48.727Z,96.00
2017-09-29T17:07:17.123Z,96.00
2017-09-29T17:09:45.731Z,96.30
2017-09-29T17:12:14.019Z,96.70
2017-09-29T17:14:42.332Z,96.90
2017-09-29T17:17:10.739Z,96.70
2017-09-29T17:19:39.027Z,97.00
2017-09-29T17:22:07.532Z,97.70
2017-09-29T17:24:35.875Z,97.20
2017-09-29T17:27:05.773Z,97.50
2017-09-29T17:29:34.107Z,97.50
2017-09-29T17:32:02.496Z,97.90
2017-09-29T17:34:31.738Z,98.40
2017-09-29T17:37:00.067Z,98.40
2017-09-29T17:39:28.424Z,98.90
2017-09-29T17:41:56.748Z,98.70
2017-09-29T17:44:25.044Z,99.00
2017-09-29T17:46:53.431Z,98.90
2017-09-29T17:49:21.763Z,99.60
2017-09-29T17:51:50.872Z,99.20
2017-09-29T17:54:19.962Z,99.20
2017-09-29T17:56:48.255Z,99.20
2017-09-29T17:59:16.622Z,98.90
2017-09-29T18:01:45.709Z,98.50
2017-09-29T18:04:14.104Z,98.50
2017-09-29T18:06:42.448Z,98.60
2017-09-29T18:09:11.527Z,98.80
2017-09-29T18:11:39.848Z,98.80
2017-09-29T18:14:09.144Z,98.90
2017-09-29T18:16:38.362Z,98.80
2017-09-29T18:19:06.684Z,98.10
2017-09-29T18:21:36.007Z,98.50
2017-09-29T18:24:04.415Z,97.90
2017-09-29T18:26:32.710Z,98.30
2017-09-29T18:29:01.804Z,98.70
2017-09-29T18:31:30.232Z,98.40
2017-09-29T18:33:58.551Z,98.00
2017-09-29T18:36:26.844Z,97.40
2017-09-29T18:38:55.172Z,97.60
2017-09-29T18:41:27.849Z,97.80
2017-09-29T18:44:11.943Z,98.20
2017-09-29T18:46:47.664Z,97.30
2017-09-29T18:49:15.999Z,97.30
2017-09-29T18:51:45.912Z,97.30
2017-09-29T18:54:16.798Z,97.10
2017-09-29T18:56:45.091Z,97.00
2017-09-29T18:59:13.508Z,96.80
2017-09-29T19:01:41.906Z,96.80
2017-09-29T19:04:10.227Z,96.70
2017-09-29T19:06:39.287Z,96.20
2017-09-29T19:09:07.628Z,96.10
2017-09-29T19:11:35.948Z,96.20
2017-09-29T19:14:04.645Z,95.90
2017-09-29T19:22:28.869Z,96.10
2017-09-29T19:24:58.690Z,96.30
2017-09-29T19:27:29.004Z,96.30
2017-09-29T19:29:57.464Z,97.00
2017-09-29T19:32:25.855Z,96.40
2017-09-29T19:34:54.747Z,96.80
2017-09-29T19:37:23.124Z,95.80
2017-09-29T19:39:51.459Z,97.00
2017-09-29T19:42:19.876Z,96.70
2017-09-29T19:44:48.280Z,97.10
2017-09-29T19:47:16.610Z,98.00
2017-09-29T19:49:46.412Z,96.80
2017-09-29T19:52:14.710Z,96.80
2017-09-29T19:54:43.027Z,97.20
2017-09-29T19:57:11.367Z,97.20
2017-09-29T19:59:40.455Z,97.00
2017-09-29T20:02:09.183Z,97.00
2017-09-29T20:04:39.064Z,96.50
2017-09-29T20:07:07.459Z,96.40
2017-09-29T20:09:36.060Z,96.40
2017-09-29T20:12:05.026Z,96.90
2017-09-29T20:14:34.387Z,96.30
2017-09-29T20:17:02.749Z,96.30
2017-09-29T20:19:31.073Z,96.80
2017-09-29T20:21:59.584Z,96.50
2017-09-29T20:24:27.948Z,96.70
2017-09-29T20:26:56.307Z,97.00
2017-09-29T20:29:25.503Z,97.50
2017-09-29T20:31:54.709Z,97.60
2017-09-29T20:34:23.055Z,97.60
2017-09-29T20:36:52.118Z,98.00
2017-09-29T20:39:20.407Z,98.00
2017-09-29T20:41:48.751Z,98.00
2017-09-29T20:44:17.055Z,98.30
2017-09-29T20:46:45.395Z,98.40
2017-09-29T20:49:14.491Z,98.70
2017-09-29T20:51:42.815Z,98.70
2017-09-29T20:54:11.998Z,98.90
2017-09-29T20:56:40.495Z,98.90
2017-09-29T20:59:09.112Z,99.00
2017-09-29T21:01:37.817Z,99.20
2017-09-29T21:04:06.295Z,99.40
2017-09-29T21:06:34.643Z,99.30
2017-09-29T21:09:03.070Z,99.20
2017-09-29T21:11:31.451Z,99.10
2017-09-29T21:13:59.747Z,99.30
2017-09-29T21:16:28.080Z,99.10
2017-09-29T21:18:57.372Z,99.10
2017-09-29T21:21:26.395Z,99.10
2017-09-29T21:23:55.294Z,99.30
2017-09-29T21:26:24.439Z,99.30
2017-09-29T21:28:52.736Z,99.30
2017-09-29T21:31:21.072Z,99.30
2017-09-29T21:33:50.164Z,99.90
2017-09-29T21:36:18.564Z,99.90
2017-09-29T21:38:46.904Z,99.90
2017-09-29T21:41:15.991Z,99.90
2017-09-29T21:43:44.389Z,99.90
2017-09-29T21:46:12.683Z,99.90
2017-09-29T21:48:41.192Z,99.90
2017-09-29T21:51:09.889Z,99.90
2017-09-29T21:53:38.595Z,99.90
2017-09-29T21:56:07.027Z,99.90
2017-09-29T21:58:36.471Z,99.90
2017-09-29T22:01:04.946Z,99.90
2017-09-29T22:03:33.351Z,99.90
2017-09-29T22:06:01.722Z,99.90
2017-09-29T22:08:30.021Z,99.90
2017-09-29T22:10:58.338Z,99.90
2017-09-29T22:13:26.667Z,99.90
2017-09-29T22:15:55.162Z,99.90
2017-09-29T22:18:23.615Z,99.90
2017-09-29T22:20:52.815Z,99.90
2017-09-29T22:23:21.895Z,99.90
2017-09-29T22:25:50.198Z,99.90
2017-09-29T22:28:18.535Z,99.90
2017-09-29T22:30:46.931Z,99.90
2017-09-29T22:33:15.231Z,99.90
2017-09-29T22:35:43.568Z,99.90
2017-09-29T22:38:11.941Z,99.90
2017-09-29T22:40:40.272Z,99.90
2017-09-29T22:43:09.396Z,99.90
2017-09-29T22:45:37.980Z,99.90
2017-09-29T22:48:07.788Z,99.90
2017-09-29T22:50:36.212Z,99.90
2017-09-29T22:53:05.586Z,99.90
2017-09-29T22:55:34.002Z,99.90
2017-09-29T22:58:02.326Z,99.90
2017-09-29T23:00:30.619Z,99.90
2017-09-29T23:02:59.195Z,99.90
2017-09-29T23:05:27.672Z,99.90
2017-09-29T23:07:56.817Z,99.90
2017-09-29T23:10:25.223Z,99.90
2017-09-29T23:12:54.458Z,99.90
2017-09-29T23:15:23.111Z,99.90
2017-09-29T23:17:52.343Z,99.90
2017-09-29T23:20:20.736Z,99.90
2017-09-29T23:22:49.062Z,99.90
2017-09-29T23:25:17.456Z,99.90
2017-09-29T23:27:45.860Z,99.90
2017-09-29T23:30:14.159Z,99.90
2017-09-29T23:32:42.458Z,99.90
2017-09-29T23:35:10.951Z,99.90
2017-09-29T23:37:39.315Z,99.90
2017-09-29T23:40:07.816Z,99.90
2017-09-29T23:42:36.386Z,99.90
2017-09-29T23:45:04.971Z,99.90
2017-09-29T23:47:33.555Z,99.90
2017-09-29T23:50:01.859Z,99.90
2017-09-29T23:52:30.155Z,99.90
2017-09-29T23:54:58.488Z,99.90
2017-09-29T23:57:26.811Z,99.90
2017-09-29T23:59:55.332Z,99.90
